Time;durP1;ratioP1;P1;durP2;ratioP2;P2;SDS_P1;SDS_P2;PMS_P1;PMS_P2;Temp;Humidity;BMP_temperature;BMP_pressure;BME280_temperature;BME280_humidity;BME280_pressure;Samples;Min_cycle;Max_cycle;Signal;HPM_P1;HPM_P2
2023/09/28 00:01:37;;;;;;;8.73;4.67;;;;;;;15.56;100.00;101187.38;5072762;28;20972;-71
2023/09/28 00:04:06;;;;;;;8.27;5.17;;;;;;;15.55;100.00;101179.50;5072788;28;20465;-71
2023/09/28 00:06:32;;;;;;;14.00;5.47;;;;;;;15.52;100.00;101180.13;5072916;28;20945;-71
2023/09/28 00:08:58;;;;;;;10.73;5.63;;;;;;;15.49;100.00;101186.22;5073375;28;20522;-71
2023/09/28 00:11:24;;;;;;;5.70;3.93;;;;;;;15.47;100.00;101183.03;5072944;28;20876;-71
2023/09/28 00:13:51;;;;;;;9.73;5.33;;;;;;;15.46;100.00;101182.22;5073716;28;20286;-71
2023/09/28 00:16:18;;;;;;;7.30;4.00;;;;;;;15.40;100.00;101175.28;5076894;28;20800;-72
2023/09/28 00:18:44;;;;;;;8.57;4.27;;;;;;;15.38;100.00;101170.16;5076695;28;20443;-72
2023/09/28 00:21:11;;;;;;;6.67;4.07;;;;;;;15.38;100.00;101172.91;5076555;28;20531;-72
2023/09/28 00:23:36;;;;;;;7.63;4.20;;;;;;;15.38;100.00;101175.63;5076581;28;20260;-73
2023/09/28 00:26:03;;;;;;;9.20;4.70;;;;;;;15.36;100.00;101177.88;5076405;28;20859;-73
2023/09/28 00:28:28;;;;;;;6.93;4.80;;;;;;;15.35;100.00;101168.06;5076476;28;20294;-73
2023/09/28 00:30:57;;;;;;;8.60;4.67;;;;;;;15.30;100.00;101168.22;5076412;28;20532;-73
2023/09/28 00:33:23;;;;;;;8.80;4.57;;;;;;;15.30;100.00;101173.69;5076064;28;20243;-73
2023/09/28 00:35:49;;;;;;;7.77;4.60;;;;;;;15.28;100.00;101178.66;5076480;28;20524;-73
2023/09/28 00:38:15;;;;;;;7.87;4.27;;;;;;;15.30;100.00;101170.16;5076236;28;20611;-73
2023/09/28 00:40:42;;;;;;;7.03;4.13;;;;;;;15.26;100.00;101164.50;5076537;28;20476;-73
2023/09/28 00:43:08;;;;;;;9.83;5.37;;;;;;;15.23;100.00;101164.34;5076250;28;20429;-73
2023/09/28 00:45:35;;;;;;;9.10;4.50;;;;;;;15.19;100.00;101152.47;5075999;28;20440;-73
2023/09/28 00:48:04;;;;;;;6.77;4.10;;;;;;;15.18;100.00;101159.84;5076033;28;20203;-73
2023/09/28 00:50:32;;;;;;;8.53;4.87;;;;;;;15.16;100.00;101155.84;5075954;28;20481;-73
2023/09/28 00:53:00;;;;;;;9.33;4.83;;;;;;;15.10;100.00;101155.19;5075672;28;20797;-73
2023/09/28 00:55:28;;;;;;;9.00;4.83;;;;;;;15.08;100.00;101154.69;5075897;28;20445;-73
2023/09/28 00:57:58;;;;;;;8.30;4.60;;;;;;;14.99;100.00;101151.13;5076092;28;20470;-73
2023/09/28 01:00:26;;;;;;;10.17;4.93;;;;;;;14.96;100.00;101151.75;5076031;28;20473;-73
2023/09/28 01:02:53;;;;;;;12.97;5.37;;;;;;;14.97;100.00;101151.47;5075794;28;20448;-73
2023/09/28 01:05:25;;;;;;;9.93;4.83;;;;;;;14.97;100.00;101156.91;5075743;28;20481;-73
2023/09/28 01:07:52;;;;;;;8.43;4.30;;;;;;;14.98;100.00;101146.81;5075928;28;20457;-73
2023/09/28 01:10:23;;;;;;;8.93;4.93;;;;;;;14.98;100.00;101144.06;5075380;28;20496;-73
2023/09/28 01:12:49;;;;;;;8.07;4.60;;;;;;;14.98;100.00;101139.41;5076346;28;20889;-73
2023/09/28 01:15:15;;;;;;;7.53;4.80;;;;;;;14.98;100.00;101147.59;5075598;28;20445;-73
2023/09/28 01:17:41;;;;;;;8.97;4.53;;;;;;;14.99;100.00;101148.41;5075463;28;20305;-73
2023/09/28 01:20:10;;;;;;;8.67;4.93;;;;;;;14.95;100.00;101136.50;5075136;28;20536;-73
2023/09/28 01:22:37;;;;;;;9.23;5.03;;;;;;;14.93;100.00;101134.13;5075525;28;20285;-73
2023/09/28 01:25:05;;;;;;;6.87;4.73;;;;;;;14.91;100.00;101138.25;5075194;28;20491;-73
2023/09/28 01:27:31;;;;;;;8.70;5.00;;;;;;;14.93;100.00;101142.28;5075032;28;20472;-73
2023/09/28 01:29:58;;;;;;;9.77;5.47;;;;;;;14.95;100.00;101144.69;5075310;28;20476;-73
2023/09/28 01:32:23;;;;;;;7.80;4.73;;;;;;;14.97;100.00;101142.47;5075256;28;20449;-73
2023/09/28 01:34:50;;;;;;;7.77;4.60;;;;;;;14.96;100.00;101138.13;5075163;28;20811;-74
2023/09/28 01:37:17;;;;;;;7.27;4.60;;;;;;;14.97;100.00;101143.28;5074933;28;20266;-74
2023/09/28 01:39:45;;;;;;;7.83;5.03;;;;;;;15.00;100.00;101134.44;5075441;28;20445;-74
2023/09/28 01:42:11;;;;;;;9.10;4.47;;;;;;;14.99;100.00;101137.50;5074735;28;20473;-73
2023/09/28 01:44:37;;;;;;;10.23;5.13;;;;;;;15.02;100.00;101139.59;5075308;28;20473;-73
2023/09/28 01:47:03;;;;;;;7.97;4.50;;;;;;;15.05;100.00;101133.47;5075255;28;20280;-73
2023/09/28 01:49:30;;;;;;;6.73;3.73;;;;;;;15.08;100.00;101138.31;5075153;28;20847;-73
2023/09/28 01:51:55;;;;;;;8.87;5.27;;;;;;;15.07;100.00;101129.31;5074866;28;20199;-73
2023/09/28 01:54:22;;;;;;;11.63;5.23;;;;;;;15.10;100.00;101119.72;5074745;28;20804;-73
2023/09/28 01:56:49;;;;;;;8.60;5.23;;;;;;;15.03;100.00;101120.16;5074943;28;20233;-73
2023/09/28 01:59:15;;;;;;;9.67;4.40;;;;;;;15.04;100.00;101126.44;5074357;28;20889;-73
2023/09/28 02:01:41;;;;;;;8.13;4.30;;;;;;;15.07;100.00;101126.59;5074637;28;20524;-73
2023/09/28 02:04:07;;;;;;;8.20;4.77;;;;;;;15.00;100.00;101118.06;5074373;28;20541;-73
2023/09/28 02:06:33;;;;;;;8.57;5.83;;;;;;;14.94;100.00;101122.06;5074260;28;20306;-73
2023/09/28 02:09:00;;;;;;;7.47;4.67;;;;;;;14.91;100.00;101108.25;5074533;28;20471;-73
2023/09/28 02:11:26;;;;;;;9.70;4.73;;;;;;;14.86;100.00;101111.94;5074824;28;20203;-73
2023/09/28 02:13:53;;;;;;;7.40;4.50;;;;;;;14.85;100.00;101104.88;5074463;28;20886;-73
2023/09/28 02:16:20;;;;;;;7.87;4.63;;;;;;;14.81;100.00;101106.63;5074203;28;20539;-73
2023/09/28 02:18:47;;;;;;;7.70;5.17;;;;;;;14.83;100.00;101097.03;5074958;28;20794;-73
2023/09/28 02:21:14;;;;;;;9.80;5.40;;;;;;;14.86;100.00;101093.66;5074265;28;20441;-73
2023/09/28 02:23:41;;;;;;;9.93;4.60;;;;;;;14.88;100.00;101093.34;5074317;28;20440;-73
2023/09/28 02:26:07;;;;;;;6.60;4.43;;;;;;;14.89;100.00;101100.41;5074150;28;20972;-73
2023/09/28 02:28:33;;;;;;;6.53;4.70;;;;;;;14.89;100.00;101093.03;5073876;28;21006;-73
2023/09/28 02:31:08;;;;;;;6.87;3.80;;;;;;;14.88;100.00;101093.34;5074128;28;20437;-73
2023/09/28 02:33:35;;;;;;;6.53;4.17;;;;;;;14.89;100.00;101093.03;5074034;28;20448;-73
2023/09/28 02:36:00;;;;;;;7.30;4.50;;;;;;;14.92;100.00;101101.69;5073925;28;20571;-73
2023/09/28 02:38:28;;;;;;;11.53;4.40;;;;;;;14.90;100.00;101093.81;5073948;28;20551;-73
2023/09/28 02:40:54;;;;;;;8.47;4.60;;;;;;;14.89;100.00;101098.47;5074413;28;20211;-73
2023/09/28 02:43:21;;;;;;;8.73;4.60;;;;;;;14.83;100.00;101088.84;5074320;28;20452;-73
2023/09/28 02:45:47;;;;;;;6.60;4.10;;;;;;;14.86;100.00;101092.84;5074192;28;20199;-73
2023/09/28 02:48:16;;;;;;;8.60;4.87;;;;;;;14.83;100.00;101088.84;5073910;28;20536;-73
2023/09/28 02:50:42;;;;;;;7.50;4.30;;;;;;;14.81;100.00;101088.34;5073530;28;20905;-73
2023/09/28 02:53:09;;;;;;;9.30;4.03;;;;;;;14.86;100.00;101090.13;5074375;28;20482;-73
2023/09/28 02:55:36;;;;;;;5.57;3.53;;;;;;;14.84;100.00;101079.53;5074244;28;20226;-73
2023/09/28 02:58:03;;;;;;;7.27;3.97;;;;;;;14.87;100.00;101078.09;5073902;28;20445;-73
2023/09/28 03:00:32;;;;;;;7.70;4.50;;;;;;;14.95;100.00;101079.22;5073416;28;20453;-73
2023/09/28 03:03:00;;;;;;;7.17;3.90;;;;;;;14.97;100.00;101079.72;5073645;28;20449;-73
2023/09/28 03:05:29;;;;;;;10.87;4.17;;;;;;;15.04;100.00;101080.84;5073304;28;20488;-73
2023/09/28 03:07:54;;;;;;;6.97;4.57;;;;;;;15.08;100.00;101081.00;5073396;28;20540;-73
2023/09/28 03:10:21;;;;;;;6.73;3.50;;;;;;;15.11;100.00;101080.38;5073260;28;21016;-73
2023/09/28 03:12:51;;;;;;;7.40;3.50;;;;;;;15.13;100.00;101092.56;5073973;28;20294;-73
2023/09/28 03:15:17;;;;;;;6.43;3.73;;;;;;;15.23;100.00;101088.75;5073480;28;20540;-73
2023/09/28 03:17:46;;;;;;;6.27;4.43;;;;;;;15.25;100.00;101080.25;5073362;28;20538;-73
2023/09/28 03:20:14;;;;;;;6.77;4.03;;;;;;;15.28;100.00;101083.13;5073535;28;20453;-72
2023/09/28 03:22:43;;;;;;;7.93;4.73;;;;;;;15.35;100.00;101088.91;5073836;28;20449;-73
2023/09/28 03:25:12;;;;;;;7.83;4.40;;;;;;;15.37;100.00;101085.88;5073720;28;20441;-72
2023/09/28 03:27:40;;;;;;;7.50;4.63;;;;;;;15.41;100.00;101075.91;5073331;28;20458;-73
2023/09/28 03:30:10;;;;;;;6.20;3.57;;;;;;;15.38;100.00;101082.81;5073428;28;20467;-73
2023/09/28 03:32:38;;;;;;;8.77;5.00;;;;;;;15.36;100.00;101092.44;5073286;28;20461;-73
2023/09/28 03:35:05;;;;;;;9.27;4.97;;;;;;;15.45;100.00;101090.53;5073322;28;20496;-73
2023/09/28 03:37:31;;;;;;;9.80;5.83;;;;;;;15.49;100.00;101090.66;5073228;28;20854;-72
2023/09/28 03:40:00;;;;;;;7.20;4.30;;;;;;;15.52;100.00;101092.75;5073251;28;20436;-72
2023/09/28 03:42:27;;;;;;;8.50;4.73;;;;;;;15.53;100.00;101099.81;5073315;28;20445;-73
2023/09/28 03:44:54;;;;;;;9.33;4.50;;;;;;;15.53;100.00;101105.28;5073218;28;20448;-72
2023/09/28 03:47:21;;;;;;;9.57;5.63;;;;;;;15.51;100.00;101102.09;5073127;28;20462;-72
2023/09/28 03:49:47;;;;;;;8.67;5.60;;;;;;;15.51;100.00;101107.53;5075592;28;20441;-72
2023/09/28 03:52:14;;;;;;;8.03;5.37;;;;;;;15.49;100.00;101107.84;5077669;28;20437;-72
2023/09/28 03:54:41;;;;;;;11.33;4.93;;;;;;;15.48;100.00;101102.72;5077468;28;20448;-72
2023/09/28 03:57:09;;;;;;;7.13;4.40;;;;;;;15.49;100.00;101109.78;5076993;28;20848;-72
2023/09/28 03:59:35;;;;;;;6.37;3.77;;;;;;;15.49;100.00;101104.31;5076850;28;20532;-72
2023/09/28 04:02:02;;;;;;;7.70;4.67;;;;;;;15.50;100.00;101105.94;5076986;28;20445;-72
2023/09/28 04:04:29;;;;;;;8.70;4.43;;;;;;;15.49;100.00;101117.97;5077094;28;20811;-72
2023/09/28 04:06:55;;;;;;;8.23;4.40;;;;;;;15.50;100.00;101111.41;5059954;28;20463;-72
2023/09/28 04:09:23;;;;;;;10.23;5.07;;;;;;;15.47;100.00;101109.31;5077376;28;20433;-72
2023/09/28 04:11:50;;;;;;;8.73;5.20;;;;;;;15.39;100.00;101111.72;5077466;28;20781;-73
2023/09/28 04:14:18;;;;;;;6.90;4.13;;;;;;;15.36;100.00;101106.91;5076842;28;20440;-73
2023/09/28 04:16:45;;;;;;;8.23;4.93;;;;;;;15.32;100.00;101105.94;5076263;28;21027;-73
2023/09/28 04:19:12;;;;;;;7.70;4.40;;;;;;;15.30;100.00;101107.38;5076685;28;20445;-73
2023/09/28 04:21:38;;;;;;;5.43;3.70;;;;;;;15.28;100.00;101109.63;5076861;28;20442;-73
2023/09/28 04:24:06;;;;;;;8.77;5.17;;;;;;;15.19;100.00;101106.88;5076289;28;20533;-73
2023/09/28 04:26:32;;;;;;;7.47;4.63;;;;;;;15.11;100.00;101111.19;5076412;28;20507;-73
2023/09/28 04:28:59;;;;;;;7.80;4.60;;;;;;;15.06;100.00;101110.56;5076554;28;20422;-73
2023/09/28 04:31:27;;;;;;;7.90;4.43;;;;;;;15.01;100.00;101110.72;5076450;28;20472;-73
2023/09/28 04:33:56;;;;;;;10.73;5.53;;;;;;;15.00;100.00;101114.53;5076678;28;20525;-73
2023/09/28 04:36:23;;;;;;;7.40;4.47;;;;;;;15.05;100.00;101114.38;5075851;28;20988;-73
2023/09/28 04:38:50;;;;;;;7.87;4.30;;;;;;;15.01;100.00;101110.72;5076151;28;20441;-73
2023/09/28 04:41:17;;;;;;;8.97;5.60;;;;;;;15.05;100.00;101115.22;5075909;28;20437;-73
2023/09/28 04:43:44;;;;;;;8.87;4.40;;;;;;;15.03;100.00;101113.91;5075847;28;20437;-73
2023/09/28 04:46:10;;;;;;;7.17;3.80;;;;;;;15.05;100.00;101117.13;5075527;28;20458;-73
2023/09/28 04:48:38;;;;;;;8.77;4.70;;;;;;;15.01;100.00;101114.25;5075823;28;20445;-73
2023/09/28 04:51:05;;;;;;;6.67;3.90;;;;;;;14.96;100.00;101122.53;5076504;28;20531;-73
2023/09/28 04:53:32;;;;;;;7.20;3.83;;;;;;;14.99;100.00;101113.75;5075777;28;20503;-73
2023/09/28 04:55:59;;;;;;;6.00;3.53;;;;;;;14.97;100.00;101116.00;5075318;28;20987;-73
2023/09/28 04:58:25;;;;;;;7.40;4.00;;;;;;;14.96;100.00;101130.72;5075876;28;20492;-73
2023/09/28 05:00:52;;;;;;;8.10;4.53;;;;;;;14.97;100.00;101145.22;5074164;28;20491;-73
2023/09/28 05:03:19;;;;;;;5.53;3.50;;;;;;;14.98;100.00;101133.16;5075683;28;20452;-73
2023/09/28 05:05:47;;;;;;;7.63;5.00;;;;;;;14.99;100.00;101130.09;5075106;28;20449;-73
2023/09/28 05:08:14;;;;;;;8.03;4.23;;;;;;;14.95;100.00;101131.06;5075557;28;20491;-73
2023/09/28 05:10:40;;;;;;;8.67;4.60;;;;;;;14.94;100.00;101130.25;5075450;28;20521;-72
2023/09/28 05:13:07;;;;;;;8.67;5.40;;;;;;;14.96;100.00;101129.94;5075445;28;20936;-72
2023/09/28 05:15:33;;;;;;;7.70;4.50;;;;;;;14.95;100.00;101131.06;5075274;28;20535;-72
2023/09/28 05:18:00;;;;;;;7.60;4.00;;;;;;;14.97;100.00;101137.81;5074912;28;20577;-72
2023/09/28 05:20:27;;;;;;;6.43;3.40;;;;;;;14.98;100.00;101133.97;5075576;28;20433;-72
2023/09/28 05:22:55;;;;;;;8.97;4.33;;;;;;;14.96;100.00;101129.94;5074892;28;20445;-72
2023/09/28 05:25:22;;;;;;;8.00;5.20;;;;;;;14.94;100.00;101126.72;5076037;28;20764;-73
2023/09/28 05:27:49;;;;;;;9.10;4.40;;;;;;;14.95;100.00;101123.69;5075359;28;20537;-74
2023/09/28 05:30:16;;;;;;;10.93;4.67;;;;;;;14.94;100.00;101132.19;5075906;28;20502;-74
2023/09/28 05:32:43;;;;;;;6.83;3.93;;;;;;;14.88;100.00;101134.25;5075598;28;20491;-73
2023/09/28 05:35:10;;;;;;;7.60;4.00;;;;;;;14.89;100.00;101131.22;5075462;28;20446;-74
2023/09/28 05:37:37;;;;;;;9.70;4.23;;;;;;;14.91;100.00;101136.34;5075039;28;20534;-75
2023/09/28 05:40:06;;;;;;;5.77;3.70;;;;;;;14.97;100.00;101137.03;5075570;28;20491;-75
2023/09/28 05:42:42;;;;;;;8.77;4.20;;;;;;;15.04;100.00;101142.78;5075437;28;20503;-73
2023/09/28 05:45:10;;;;;;;11.27;5.00;;;;;;;15.08;100.00;101139.13;5075531;28;20441;-75
2023/09/28 05:47:37;;;;;;;7.40;3.93;;;;;;;15.14;100.00;101139.78;5075009;28;20449;-73
2023/09/28 05:50:05;;;;;;;8.60;4.87;;;;;;;15.24;100.00;101144.94;5075359;28;20464;-72
2023/09/28 05:52:33;;;;;;;9.57;4.73;;;;;;;15.34;100.00;101139.16;5075302;28;20446;-72
2023/09/28 05:54:59;;;;;;;14.93;6.07;;;;;;;15.46;100.00;101143.22;5074631;28;20921;-72
2023/09/28 05:57:28;;;;;;;7.47;5.00;;;;;;;15.51;100.00;101145.78;5074681;28;20481;-72
2023/09/28 05:59:55;;;;;;;8.20;4.73;;;;;;;15.55;100.00;101142.09;5075108;28;20533;-72
2023/09/28 06:02:21;;;;;;;7.30;4.40;;;;;;;15.58;100.00;101144.19;5074947;28;20434;-72
2023/09/28 06:04:48;;;;;;;7.67;4.17;;;;;;;15.64;100.00;101156.56;5088110;22;20492;-70
2023/09/28 06:07:15;;;;;;;7.30;4.27;;;;;;;15.69;100.00;101152.06;5074590;28;20540;-70
2023/09/28 06:09:43;;;;;;;10.70;5.80;;;;;;;15.75;100.00;101165.22;5074893;28;20529;-70
2023/09/28 06:12:09;;;;;;;8.43;4.50;;;;;;;15.83;100.00;101161.69;5074640;28;20472;-70
2023/09/28 06:14:38;;;;;;;7.07;4.50;;;;;;;15.91;100.00;101159.31;5074192;28;20862;-70
2023/09/28 06:17:04;;;;;;;9.00;4.90;;;;;;;16.01;100.00;101158.97;5074661;28;20498;-70
2023/09/28 06:19:31;;;;;;;9.73;4.80;;;;;;;16.10;100.00;101163.28;5074646;28;20457;-69
2023/09/28 06:21:59;;;;;;;7.50;4.67;;;;;;;16.17;100.00;101167.47;5074102;28;20537;-69
2023/09/28 06:24:26;;;;;;;7.13;4.40;;;;;;;16.23;100.00;101166.97;5075073;28;20778;-70
2023/09/28 06:26:53;;;;;;;7.63;4.40;;;;;;;16.28;100.00;101164.03;5074164;28;20462;-70
2023/09/28 06:29:20;;;;;;;7.63;4.57;;;;;;;16.38;100.00;101165.66;5074202;28;20445;-70
2023/09/28 06:31:48;;;;;;;8.10;5.27;;;;;;;16.47;100.00;101168.34;5074370;28;20437;-70
2023/09/28 06:34:14;;;;;;;8.53;4.47;;;;;;;16.54;100.00;101165.91;5073878;28;20536;-70
2023/09/28 06:36:41;;;;;;;8.60;5.13;;;;;;;16.60;100.00;101170.06;5073761;28;20489;-70
2023/09/28 06:39:08;;;;;;;7.37;4.00;;;;;;;16.66;100.00;101174.25;5077455;28;20511;-70
2023/09/28 06:41:35;;;;;;;6.93;4.27;;;;;;;16.74;100.00;101175.38;5080044;28;20437;-70
2023/09/28 06:44:02;;;;;;;9.27;6.07;;;;;;;16.83;100.00;101176.16;5080274;28;20437;-70
2023/09/28 06:46:28;;;;;;;8.13;5.10;;;;;;;16.90;100.00;101173.69;5074160;28;20519;-70
2023/09/28 06:48:56;;;;;;;8.47;3.97;;;;;;;16.97;100.00;101184.13;5073852;28;20433;-69
2023/09/28 06:51:25;;;;;;;7.20;5.27;;;;;;;17.06;100.00;101176.69;5073843;28;20441;-69
2023/09/28 06:53:52;;;;;;;5.97;3.33;;;;;;;17.12;100.00;101175.34;5074231;28;20445;-69
2023/09/28 06:56:20;;;;;;;8.57;5.07;;;;;;;17.15;100.00;101172.75;5073702;28;20547;-70
2023/09/28 06:58:46;;;;;;;7.00;4.43;;;;;;;17.21;100.00;101176.09;5073705;28;20495;-70
2023/09/28 07:01:13;;;;;;;6.17;3.57;;;;;;;17.22;100.00;101177.72;5073583;28;20429;-70
2023/09/28 07:03:40;;;;;;;9.20;5.07;;;;;;;17.25;100.00;101178.97;5073959;28;20525;-70
2023/09/28 07:06:08;;;;;;;8.40;5.20;;;;;;;17.31;100.00;101174.91;5073947;28;20500;-69
2023/09/28 07:08:35;;;;;;;8.63;5.53;;;;;;;17.35;100.00;101173.94;5073306;28;20453;-69
2023/09/28 07:11:02;;;;;;;9.17;5.03;;;;;;;17.37;100.00;101182.59;5073943;28;20521;-69
2023/09/28 07:13:28;;;;;;;6.70;4.00;;;;;;;17.45;100.00;101193.84;5073493;28;20444;-69
2023/09/28 07:15:57;;;;;;;6.30;3.80;;;;;;;17.55;100.00;101196.19;5073497;28;20835;-69
2023/09/28 07:18:25;;;;;;;8.60;5.17;;;;;;;17.61;100.00;101198.38;5073658;28;20480;-70
2023/09/28 07:20:52;;;;;;;9.10;5.37;;;;;;;17.76;100.00;101198.97;5073455;28;20456;-70
2023/09/28 07:23:20;;;;;;;9.30;5.37;;;;;;;17.87;100.00;101206.44;5072960;28;20441;-70
2023/09/28 07:25:47;;;;;;;9.27;4.40;;;;;;;17.97;99.55;101202.47;5073140;28;20448;-70
2023/09/28 07:28:13;;;;;;;9.50;4.80;;;;;;;18.04;99.26;101210.97;5073716;28;20784;-70
2023/09/28 07:30:41;;;;;;;10.17;5.40;;;;;;;18.15;98.56;101211.38;5073850;28;20480;-70
2023/09/28 07:33:07;;;;;;;6.87;4.53;;;;;;;18.24;98.21;101217.59;5073736;28;20449;-70
2023/09/28 07:35:34;;;;;;;9.10;5.27;;;;;;;18.36;98.01;101220.34;5073544;28;20550;-70
2023/09/28 07:38:01;;;;;;;7.63;4.60;;;;;;;18.44;97.67;101220.59;5073528;28;20487;-70
2023/09/28 07:40:29;;;;;;;9.80;5.57;;;;;;;18.52;96.94;101227.94;5073354;28;20465;-70
2023/09/28 07:42:56;;;;;;;10.30;4.33;;;;;;;18.57;96.31;101227.72;5073432;28;20511;-69
2023/09/28 07:45:23;;;;;;;7.40;4.17;;;;;;;18.64;96.42;101239.75;5073842;28;20925;-70
2023/09/28 07:47:49;;;;;;;8.00;4.00;;;;;;;18.72;96.16;101229.84;5073621;28;20457;-71
2023/09/28 07:50:16;;;;;;;8.50;4.90;;;;;;;18.82;96.22;101229.41;5073211;28;20528;-70
2023/09/28 07:52:43;;;;;;;10.00;5.47;;;;;;;18.89;94.45;101229.63;5073149;28;20541;-70
2023/09/28 07:55:10;;;;;;;5.10;4.03;;;;;;;19.01;94.97;101239.03;5073526;28;20859;-71
2023/09/28 07:57:39;;;;;;;9.13;5.20;;;;;;;19.09;94.85;101243.63;5074937;28;20597;-70
2023/09/28 08:00:08;;;;;;;8.87;5.10;;;;;;;19.23;94.24;101243.28;5074409;28;20445;-70
2023/09/28 08:02:35;;;;;;;9.57;4.70;;;;;;;19.33;94.01;101234.56;5073196;28;20783;-70
2023/09/28 08:05:02;;;;;;;8.10;4.50;;;;;;;19.46;94.30;101229.88;5072815;28;20549;-70
2023/09/28 08:07:31;;;;;;;7.40;4.13;;;;;;;19.54;92.76;101228.94;5072911;28;20902;-70
2023/09/28 08:09:58;;;;;;;8.13;4.93;;;;;;;19.64;93.03;101225.75;5072725;28;21012;-70
2023/09/28 08:12:24;;;;;;;9.00;4.27;;;;;;;19.73;93.56;101229.16;5073118;28;20477;-70
2023/09/28 08:14:52;;;;;;;7.70;4.00;;;;;;;19.84;93.71;101226.75;5072702;28;20946;-70
2023/09/28 08:17:20;;;;;;;12.43;4.77;;;;;;;19.93;93.67;101219.16;5072515;28;21028;-69
2023/09/28 08:19:47;;;;;;;8.47;4.53;;;;;;;20.06;92.13;101222.66;5073224;28;20441;-70
2023/09/28 08:22:14;;;;;;;5.93;3.70;;;;;;;20.12;92.02;101219.31;5072999;28;20473;-70
2023/09/28 08:24:40;;;;;;;6.43;3.70;;;;;;;20.27;89.45;101227.94;5072594;28;20791;-70
2023/09/28 08:27:07;;;;;;;13.70;4.70;;;;;;;20.35;89.75;101230.53;5072815;28;20461;-70
2023/09/28 08:29:34;;;;;;;7.17;4.60;;;;;;;20.40;90.35;101237.75;5072581;28;20926;-70
2023/09/28 08:32:03;;;;;;;6.57;3.90;;;;;;;20.44;89.94;101243.34;5072889;28;20437;-70
2023/09/28 08:34:29;;;;;;;6.27;4.40;;;;;;;20.52;88.07;101253.44;5073458;28;20538;-70
2023/09/28 08:36:56;;;;;;;8.83;4.80;;;;;;;20.57;88.83;101248.47;5076300;28;20936;-70
2023/09/28 08:39:22;;;;;;;11.00;4.83;;;;;;;20.58;88.77;101244.56;5076306;28;20892;-70
2023/09/28 08:41:55;;;;;;;7.73;4.27;;;;;;;20.56;89.54;101254.34;5076011;28;20517;-70
2023/09/28 08:44:25;;;;;;;7.90;4.23;;;;;;;20.61;88.81;101245.81;5076059;28;20514;-71
2023/09/28 08:46:57;;;;;;;8.60;4.33;;;;;;;20.70;88.20;101254.69;5076428;28;20484;-71
2023/09/28 08:49:27;;;;;;;6.90;3.97;;;;;;;20.83;87.10;101247.16;5076226;28;20853;-71
2023/09/28 08:51:55;;;;;;;5.90;3.30;;;;;;;20.88;86.86;101260.66;5076449;28;20539;-71
2023/09/28 08:54:23;;;;;;;6.30;3.60;;;;;;;20.93;88.18;101260.41;5076126;28;20441;-71
2023/09/28 08:56:52;;;;;;;6.40;3.83;;;;;;;20.98;88.46;101257.38;5075856;28;20466;-71
2023/09/28 08:59:20;;;;;;;8.07;3.50;;;;;;;21.05;88.39;101265.03;5075545;28;21046;-71
2023/09/28 09:01:48;;;;;;;6.70;4.50;;;;;;;21.16;87.22;101266.09;5076281;28;20461;-70
2023/09/28 09:04:14;;;;;;;7.70;4.47;;;;;;;21.23;86.93;101268.22;5075621;28;20567;-70
2023/09/28 09:06:43;;;;;;;8.80;4.77;;;;;;;21.40;86.56;101260.41;5075638;28;21060;-71
2023/09/28 09:09:15;;;;;;;6.87;4.00;;;;;;;21.63;83.34;101268.00;5075956;28;20441;-70
2023/09/28 09:11:50;;;;;;;7.47;3.93;;;;;;;21.67;84.03;101263.38;5075463;28;20427;-70
2023/09/28 09:14:17;;;;;;;8.77;3.77;;;;;;;21.68;84.43;101264.97;5075926;28;20939;-70
2023/09/28 09:16:43;;;;;;;6.03;3.60;;;;;;;21.74;84.98;101262.75;5075665;28;20489;-70
2023/09/28 09:19:13;;;;;;;7.43;3.67;;;;;;;21.93;83.90;101260.00;5075611;28;20566;-69
2023/09/28 09:21:44;;;;;;;7.70;4.50;;;;;;;22.04;82.97;101252.75;5075302;28;20532;-69
2023/09/28 09:24:14;;;;;;;7.10;4.37;;;;;;;22.10;82.38;101256.03;5075399;28;20897;-70
2023/09/28 09:26:42;;;;;;;8.70;3.90;;;;;;;22.05;83.52;101259.09;5075182;28;20575;-71
2023/09/28 09:29:10;;;;;;;6.77;3.40;;;;;;;22.14;82.96;101257.72;5075430;28;20503;-69
2023/09/28 09:31:38;;;;;;;6.40;3.77;;;;;;;22.28;82.40;101262.72;5075564;28;20495;-70
2023/09/28 09:34:05;;;;;;;6.47;3.70;;;;;;;22.40;82.34;101268.09;5075764;28;20446;-71
2023/09/28 09:36:32;;;;;;;5.90;3.47;;;;;;;22.46;80.70;101267.81;5076334;28;20541;-72
2023/09/28 09:39:01;;;;;;;6.37;4.00;;;;;;;22.57;80.92;101266.03;5075327;28;20507;-72
2023/09/28 09:41:29;;;;;;;6.73;3.67;;;;;;;22.72;80.84;101259.63;5075504;28;20454;-71
2023/09/28 09:43:59;;;;;;;5.40;3.20;;;;;;;22.76;80.48;101265.22;5075827;28;20532;-69
2023/09/28 09:46:26;;;;;;;6.17;3.57;;;;;;;22.87;78.54;101269.75;5075218;28;20453;-70
2023/09/28 09:48:54;;;;;;;6.77;3.40;;;;;;;22.93;78.91;101259.19;5057531;28;20437;-70
2023/09/28 09:51:21;;;;;;;8.23;4.30;;;;;;;23.04;76.97;101265.72;5075371;28;20436;-70
2023/09/28 09:53:48;;;;;;;6.80;3.87;;;;;;;23.12;77.67;101263.88;5075259;28;20543;-71
2023/09/28 09:56:16;;;;;;;5.67;3.23;;;;;;;23.20;77.89;101265.59;5075512;28;20519;-70
2023/09/28 09:58:47;;;;;;;8.47;4.10;;;;;;;23.31;76.82;101263.00;5076034;28;20566;-71
2023/09/28 10:01:16;;;;;;;7.03;3.00;;;;;;;23.35;78.82;101272.94;5075262;28;20513;-70
2023/09/28 10:03:45;;;;;;;5.43;3.07;;;;;;;23.32;77.99;101267.34;5074695;28;20450;-70
2023/09/28 10:06:15;;;;;;;7.57;4.43;;;;;;;23.41;77.71;101268.66;5075159;28;20465;-70
2023/09/28 10:08:43;;;;;;;5.03;2.90;;;;;;;23.52;77.02;101273.59;5074602;28;20442;-70
2023/09/28 10:11:12;;;;;;;9.13;3.20;;;;;;;23.61;75.26;101266.59;5074674;28;20444;-70
2023/09/28 10:13:41;;;;;;;6.50;3.70;;;;;;;23.72;73.13;101258.47;5074814;28;20437;-70
2023/09/28 10:16:11;;;;;;;4.33;2.97;;;;;;;23.72;73.28;101261.25;5075397;28;20458;-70
2023/09/28 10:18:40;;;;;;;5.03;2.83;;;;;;;23.68;71.04;101265.94;5075156;28;20461;-70
2023/09/28 10:21:07;;;;;;;4.70;2.73;;;;;;;23.69;72.00;101264.78;5075425;28;20441;-70
2023/09/28 10:23:34;;;;;;;4.37;2.40;;;;;;;23.86;71.60;101267.00;5074397;28;20438;-71
2023/09/28 10:26:07;;;;;;;5.83;2.80;;;;;;;24.07;72.12;101271.19;5074538;28;20461;-71
2023/09/28 10:28:34;;;;;;;5.17;2.97;;;;;;;24.28;71.34;101270.66;5074655;28;20446;-69
2023/09/28 10:31:09;;;;;;;5.40;2.90;;;;;;;24.38;70.25;101279.09;5074792;28;20438;-68
2023/09/28 10:33:36;;;;;;;5.73;3.00;;;;;;;24.41;68.60;101277.56;5074928;28;20421;-69
2023/09/28 10:36:13;;;;;;;4.60;2.80;;;;;;;24.47;70.60;101269.72;5074669;28;20457;-69
2023/09/28 10:38:41;;;;;;;6.13;2.83;;;;;;;24.54;69.53;101262.28;5073759;28;21064;-69
2023/09/28 10:41:08;;;;;;;5.03;3.20;;;;;;;24.60;71.36;101269.06;5074029;28;20524;-69
2023/09/28 10:43:40;;;;;;;9.17;3.20;;;;;;;24.68;67.56;101278.25;5074124;28;20463;-70
2023/09/28 10:46:08;;;;;;;5.73;2.90;;;;;;;24.80;66.09;101279.97;5074560;28;20446;-70
2023/09/28 10:48:40;;;;;;;4.10;2.40;;;;;;;24.85;66.89;101274.84;5074417;28;20525;-70
2023/09/28 10:51:11;;;;;;;5.63;3.07;;;;;;;24.97;65.93;101278.50;5074670;28;20445;-70
2023/09/28 10:53:38;;;;;;;4.13;2.43;;;;;;;25.04;63.36;101267.50;5074208;28;20418;-70
2023/09/28 10:56:06;;;;;;;5.83;2.70;;;;;;;25.19;64.80;101265.66;5074032;28;20497;-70
2023/09/28 10:58:34;;;;;;;6.03;3.30;;;;;;;25.28;65.54;101274.44;5073094;28;20493;-70
2023/09/28 11:01:04;;;;;;;3.60;2.47;;;;;;;25.48;64.75;101274.97;5073953;28;20464;-70
2023/09/28 11:03:33;;;;;;;4.87;2.70;;;;;;;25.58;64.20;101260.38;5073804;28;20422;-70
2023/09/28 11:06:01;;;;;;;6.93;3.17;;;;;;;25.78;64.88;101264.50;5073875;28;20457;-70
2023/09/28 11:08:27;;;;;;;4.60;2.63;;;;;;;26.38;59.74;101272.25;5073914;28;20437;-70
2023/09/28 11:10:58;;;;;;;3.40;1.70;;;;;;;27.07;56.71;101287.09;5074544;28;20530;-70
2023/09/28 11:13:25;;;;;;;4.47;2.57;;;;;;;27.99;53.07;101291.00;5073618;28;20425;-70
2023/09/28 11:15:51;;;;;;;6.93;2.43;;;;;;;28.81;49.39;101298.94;5074046;28;20519;-70
2023/09/28 11:18:19;;;;;;;7.37;2.20;;;;;;;29.24;51.13;101302.22;5073780;28;20445;-70
2023/09/28 11:20:47;;;;;;;3.53;1.80;;;;;;;29.72;48.88;101309.75;5074143;28;20445;-70